Time;durP1;ratioP1;P1;durP2;ratioP2;P2;SDS_P1;SDS_P2;PMS_P1;PMS_P2;Temp;Humidity;BMP_temperature;BMP_pressure;BME280_temperature;BME280_humidity;BME280_pressure;Samples;Min_cycle;Max_cycle;Signal;HPM_P1;HPM_P2
2022/06/15 00:01:42;;;;;;;7.28;5.20;;;;;;;14.93;100.00;100378.56;6185657;23;20021;-79
2022/06/15 00:04:08;;;;;;;6.97;5.00;;;;;;;14.90;98.88;100365.53;6213013;23;20408;-79
2022/06/15 00:06:38;;;;;;;7.00;4.70;;;;;;;14.92;99.32;100390.22;6213006;23;20028;-79
2022/06/15 00:09:03;;;;;;;7.97;4.93;;;;;;;14.94;99.92;100388.50;6213523;23;20012;-79
2022/06/15 00:11:34;;;;;;;6.28;4.60;;;;;;;14.92;99.32;100379.81;6212437;23;20012;-79
2022/06/15 00:14:07;;;;;;;7.40;5.07;;;;;;;14.85;99.35;100362.53;6212629;23;20075;-79
2022/06/15 00:16:33;;;;;;;7.10;5.07;;;;;;;14.73;99.55;100372.56;6213087;23;20637;-79
2022/06/15 00:18:58;;;;;;;5.93;4.63;;;;;;;14.70;100.00;100372.72;6212800;23;20004;-79
2022/06/15 00:21:24;;;;;;;6.32;4.82;;;;;;;14.70;100.00;100378.31;6187014;23;20044;-79
2022/06/15 00:23:50;;;;;;;12.27;5.22;;;;;;;14.60;100.00;100374.66;6212535;23;20035;-79
2022/06/15 00:26:16;;;;;;;11.20;5.10;;;;;;;14.44;100.00;100372.09;6212856;23;20067;-79
2022/06/15 00:28:42;;;;;;;6.38;5.05;;;;;;;14.42;100.00;100371.78;6212742;23;20012;-79
2022/06/15 00:31:07;;;;;;;6.57;5.25;;;;;;;14.35;100.00;100363.66;6213164;23;20009;-79
2022/06/15 00:33:33;;;;;;;6.82;5.00;;;;;;;14.26;100.00;100377.53;6212372;23;20063;-79
2022/06/15 00:36:07;;;;;;;5.82;5.00;;;;;;;14.27;100.00;100381.88;6211769;23;20064;-79
2022/06/15 00:38:39;;;;;;;8.13;5.20;;;;;;;14.24;100.00;100371.59;6212777;23;20012;-79
2022/06/15 00:41:06;;;;;;;7.43;5.00;;;;;;;14.21;100.00;100378.09;6186238;23;20013;-79
2022/06/15 00:43:36;;;;;;;8.73;5.30;;;;;;;14.19;100.00;100378.56;6161585;23;20087;-79
2022/06/15 00:46:21;;;;;;;7.32;4.97;;;;;;;14.08;100.00;100375.34;6185401;23;20019;-79
2022/06/15 00:48:49;;;;;;;7.25;5.22;;;;;;;14.14;100.00;100383.94;6212151;23;20465;-79
2022/06/15 00:51:15;;;;;;;7.25;5.25;;;;;;;14.18;100.00;100376.22;6186006;23;20044;-79
2022/06/15 00:53:40;;;;;;;5.68;5.10;;;;;;;14.30;100.00;100378.94;6212728;23;20079;-79
2022/06/15 00:56:06;;;;;;;8.45;5.07;;;;;;;14.34;100.00;100367.66;6185589;23;20559;-79
2022/06/15 00:58:32;;;;;;;6.65;4.93;;;;;;;14.41;100.00;100378.59;6185713;23;20408;-79
2022/06/15 01:00:57;;;;;;;9.23;4.80;;;;;;;14.46;100.00;100380.78;6212676;23;20017;-79
2022/06/15 01:03:23;;;;;;;7.97;5.32;;;;;;;14.42;100.00;100385.72;6211590;23;20020;-79
2022/06/15 01:06:05;;;;;;;7.28;4.82;;;;;;;14.39;100.00;100384.63;6211915;23;20073;-79
2022/06/15 01:08:38;;;;;;;6.15;4.90;;;;;;;14.36;100.00;100382.72;6186079;23;20020;-79
2022/06/15 01:11:21;;;;;;;6.57;5.22;;;;;;;14.27;100.00;100384.66;6160415;23;20027;-79
2022/06/15 01:13:57;;;;;;;6.35;4.78;;;;;;;14.23;100.00;100386.81;6186353;23;20016;-79
2022/06/15 01:16:37;;;;;;;6.97;5.07;;;;;;;14.22;100.00;100388.81;6160731;23;20072;-79
2022/06/15 01:19:24;;;;;;;7.90;4.90;;;;;;;14.11;100.00;100387.63;6160497;23;20027;-79
2022/06/15 01:21:56;;;;;;;5.70;4.57;;;;;;;14.08;100.00;100380.16;6185639;23;20012;-79
2022/06/15 01:24:38;;;;;;;7.55;5.25;;;;;;;14.08;100.00;100388.53;6161107;23;20071;-79
2022/06/15 01:27:14;;;;;;;8.10;5.30;;;;;;;14.10;100.00;100386.84;6186000;23;20017;-79
2022/06/15 01:30:08;;;;;;;6.70;4.93;;;;;;;14.15;100.00;100388.28;6212833;23;20059;-79
2022/06/15 01:33:06;;;;;;;7.35;4.97;;;;;;;14.18;100.00;100392.97;6184536;23;20020;-79
2022/06/15 01:35:39;;;;;;;7.65;4.90;;;;;;;14.22;100.00;100393.63;6185083;23;20016;-80
2022/06/15 01:38:21;;;;;;;6.40;5.07;;;;;;;14.22;100.00;100390.81;6186259;23;20029;-79
2022/06/15 01:40:52;;;;;;;6.13;4.68;;;;;;;14.17;100.00;100383.81;6162015;23;20080;-79
2022/06/15 01:43:19;;;;;;;6.93;4.75;;;;;;;14.21;100.00;100392.81;6186265;23;20008;-79
2022/06/15 01:45:47;;;;;;;6.07;4.65;;;;;;;14.27;100.00;100395.81;6185703;23;20040;-79
2022/06/15 01:48:16;;;;;;;5.85;4.68;;;;;;;14.24;100.00;100385.56;6161898;23;20012;-79
2022/06/15 01:50:46;;;;;;;6.07;4.72;;;;;;;14.23;100.00;100387.59;6160578;23;20008;-79
2022/06/15 01:53:25;;;;;;;8.48;5.20;;;;;;;14.19;100.00;100400.09;6184651;23;20020;-79
2022/06/15 01:55:55;;;;;;;9.18;4.75;;;;;;;14.28;100.00;100391.78;6160438;23;20012;-79
2022/06/15 01:58:24;;;;;;;5.78;4.68;;;;;;;14.27;100.00;100393.03;6184699;23;20095;-79
2022/06/15 02:00:57;;;;;;;10.85;5.25;;;;;;;14.30;100.00;100392.91;6160802;23;20047;-79
2022/06/15 02:03:46;;;;;;;9.88;4.72;;;;;;;14.33;100.00;100385.63;6212117;23;20051;-79
2022/06/15 02:06:30;;;;;;;5.82;4.70;;;;;;;14.29;100.00;100373.81;6186111;23;20103;-79
2022/06/15 02:09:05;;;;;;;7.60;4.68;;;;;;;14.30;100.00;100383.75;6185307;23;20016;-79
2022/06/15 02:11:34;;;;;;;6.65;4.38;;;;;;;14.28;100.00;100391.78;6186248;23;20028;-79
2022/06/15 02:14:16;;;;;;;8.38;4.90;;;;;;;14.29;100.00;100387.78;6160625;23;20021;-79
2022/06/15 02:16:49;;;;;;;8.55;4.75;;;;;;;14.30;100.00;100380.97;6160819;23;20099;-79
2022/06/15 02:19:17;;;;;;;5.47;4.55;;;;;;;14.31;100.00;100380.53;6186351;23;20012;-79
2022/06/15 02:21:45;;;;;;;8.15;4.70;;;;;;;14.28;100.00;100386.97;6212470;23;20008;-79
2022/06/15 02:24:11;;;;;;;6.88;4.63;;;;;;;14.34;100.00;100384.41;6160029;23;20013;-79
2022/06/15 02:26:38;;;;;;;5.97;4.78;;;;;;;14.37;100.00;100384.28;6161525;23;20016;-79
2022/06/15 02:29:09;;;;;;;7.22;4.90;;;;;;;14.33;100.00;100382.84;6160597;23;20111;-79
2022/06/15 02:31:43;;;;;;;7.18;4.70;;;;;;;14.28;100.00;100383.41;6161392;23;20024;-79
2022/06/15 02:34:09;;;;;;;10.80;5.00;;;;;;;14.25;100.00;100387.13;6160618;23;20359;-79
2022/06/15 02:36:35;;;;;;;6.55;4.40;;;;;;;14.13;100.00;100383.16;6160201;23;20072;-79
2022/06/15 02:39:05;;;;;;;7.57;4.65;;;;;;;14.07;100.00;100382.19;6185766;23;20514;-79
2022/06/15 02:41:31;;;;;;;7.13;4.90;;;;;;;14.04;100.00;100377.50;6212785;23;20012;-79
2022/06/15 02:44:03;;;;;;;8.10;4.80;;;;;;;14.08;100.00;100383.72;6184141;23;20016;-79
2022/06/15 02:46:33;;;;;;;7.18;5.13;;;;;;;14.09;100.00;100384.50;6185156;23;20028;-79
2022/06/15 02:49:00;;;;;;;7.97;4.95;;;;;;;14.07;100.00;100393.34;6159894;23;20040;-79
2022/06/15 02:51:34;;;;;;;7.07;4.93;;;;;;;14.03;100.00;100384.31;6161039;23;20083;-79
2022/06/15 02:54:07;;;;;;;7.45;4.90;;;;;;;14.03;100.00;100385.09;6161370;23;20024;-79
2022/06/15 02:56:36;;;;;;;8.32;5.10;;;;;;;14.05;100.00;100383.84;6162007;23;20059;-79
2022/06/15 02:59:01;;;;;;;8.70;4.88;;;;;;;14.03;100.00;100381.53;6185488;23;20440;-79
2022/06/15 03:01:34;;;;;;;8.38;4.82;;;;;;;13.93;100.00;100377.88;6185001;23;20020;-79
2022/06/15 03:04:00;;;;;;;8.50;5.13;;;;;;;13.94;100.00;100373.88;6196961;23;20068;-79
2022/06/15 03:06:30;;;;;;;6.90;5.07;;;;;;;13.93;100.00;100375.09;6186393;23;20017;-79
2022/06/15 03:08:59;;;;;;;7.80;5.45;;;;;;;13.90;100.00;100373.22;6210045;23;20015;-79
2022/06/15 03:11:35;;;;;;;6.75;5.15;;;;;;;13.87;100.00;100371.31;6212217;23;20024;-79
2022/06/15 03:14:07;;;;;;;6.22;5.63;;;;;;;13.84;100.00;100369.44;6212368;23;20759;-79
2022/06/15 03:16:34;;;;;;;6.38;5.53;;;;;;;13.77;100.00;100374.47;6187337;23;20483;-79
2022/06/15 03:19:00;;;;;;;7.97;5.53;;;;;;;13.62;100.00;100376.19;6211029;23;20020;-79
2022/06/15 03:21:27;;;;;;;9.65;5.80;;;;;;;13.60;100.00;100373.84;6213342;23;20036;-79
2022/06/15 03:23:54;;;;;;;7.70;5.20;;;;;;;13.58;100.00;100376.31;6212405;23;20015;-79
2022/06/15 03:26:19;;;;;;;6.20;5.05;;;;;;;13.54;100.00;100384.03;6213483;23;20005;-79
2022/06/15 03:28:45;;;;;;;7.78;5.45;;;;;;;13.60;100.00;100373.84;6211297;23;20451;-79
2022/06/15 03:31:14;;;;;;;7.00;4.72;;;;;;;13.57;100.00;100371.97;6211749;23;20513;-79
2022/06/15 03:33:41;;;;;;;8.63;4.55;;;;;;;13.59;100.00;100375.06;6185485;23;20346;-79
2022/06/15 03:36:11;;;;;;;7.85;5.57;;;;;;;13.61;100.00;100377.41;6211341;23;20012;-79
2022/06/15 03:38:37;;;;;;;7.18;5.28;;;;;;;13.59;100.00;100375.06;6212088;23;20066;-79
2022/06/15 03:41:16;;;;;;;8.65;5.15;;;;;;;13.59;100.00;100366.69;6188899;23;20009;-79
2022/06/15 03:43:42;;;;;;;9.00;5.57;;;;;;;13.70;100.00;100369.16;6187408;23;20013;-79
2022/06/15 03:46:13;;;;;;;6.18;4.95;;;;;;;13.67;100.00;100376.38;6211032;23;20485;-79
2022/06/15 03:48:40;;;;;;;8.48;5.30;;;;;;;13.67;100.00;100359.66;6211741;23;20020;-78
2022/06/15 03:51:06;;;;;;;6.13;5.00;;;;;;;13.71;100.00;100370.72;6211981;23;20020;-78
2022/06/15 03:53:41;;;;;;;7.80;5.10;;;;;;;13.67;100.00;100362.44;6210812;23;20338;-78
2022/06/15 03:56:07;;;;;;;6.75;5.43;;;;;;;13.67;100.00;100354.09;6211282;23;20017;-78
2022/06/15 03:58:33;;;;;;;10.18;6.15;;;;;;;13.66;100.00;100363.69;6211262;23;20013;-78
2022/06/15 04:00:58;;;;;;;8.30;6.15;;;;;;;13.68;100.00;100358.44;6209225;23;20020;-79
2022/06/15 04:03:29;;;;;;;7.65;5.40;;;;;;;13.82;100.00;100357.19;6211232;23;20012;-78
2022/06/15 04:06:03;;;;;;;7.30;5.60;;;;;;;13.86;100.00;100350.25;6211335;23;20355;-79
2022/06/15 04:08:37;;;;;;;6.45;4.90;;;;;;;13.90;100.00;100358.50;6208448;23;20028;-79
2022/06/15 04:12:02;;;;;;;8.13;5.13;;;;;;;13.94;100.00;100362.72;6211394;23;20019;-79
2022/06/15 04:14:04;;;;;;;8.35;5.45;;;;;;;13.96;100.00;100357.44;6192967;23;20485;-79
2022/06/15 04:16:31;;;;;;;8.93;5.35;;;;;;;14.01;100.00;100356.88;6211482;23;20027;-78
2022/06/15 04:19:02;;;;;;;8.25;5.50;;;;;;;14.08;100.00;100347.47;6210811;23;20370;-79
2022/06/15 04:21:28;;;;;;;8.27;5.43;;;;;;;14.31;100.00;100357.41;6210996;23;20012;-80
2022/06/15 04:23:55;;;;;;;8.05;5.38;;;;;;;14.43;100.00;100360.16;6210853;23;20028;-79
2022/06/15 04:26:21;;;;;;;7.43;5.47;;;;;;;14.47;100.00;100360.03;6186257;23;20005;-78
2022/06/15 04:28:48;;;;;;;7.80;5.63;;;;;;;14.50;100.00;100359.09;6186547;23;20013;-79
2022/06/15 04:31:17;;;;;;;9.88;5.93;;;;;;;14.58;100.00;100363.19;6212275;23;20027;-79
2022/06/15 04:33:43;;;;;;;9.18;5.93;;;;;;;14.65;100.00;100371.28;6210962;23;20013;-79
2022/06/15 04:36:13;;;;;;;9.98;5.90;;;;;;;14.67;100.00;100362.47;6211315;23;20023;-79
2022/06/15 04:38:41;;;;;;;11.18;6.47;;;;;;;14.80;100.00;100372.28;6211353;23;20092;-79
2022/06/15 04:41:07;;;;;;;10.13;6.43;;;;;;;14.93;100.00;100375.78;6210819;23;20016;-79
2022/06/15 04:43:33;;;;;;;8.85;6.57;;;;;;;15.04;100.00;100369.00;6210952;23;20437;-80
2022/06/15 04:46:00;;;;;;;9.57;7.07;;;;;;;15.17;100.00;100378.03;6210349;23;20096;-79
2022/06/15 04:48:26;;;;;;;10.85;6.13;;;;;;;15.25;100.00;100373.72;6210854;23;20016;-79
2022/06/15 04:50:53;;;;;;;9.52;7.57;;;;;;;15.43;100.00;100379.38;6210570;23;20068;-79
2022/06/15 04:53:22;;;;;;;10.40;6.68;;;;;;;15.49;100.00;100376.75;6211178;23;20028;-80
2022/06/15 04:55:51;;;;;;;7.85;6.30;;;;;;;15.67;100.00;100376.81;6211547;23;20339;-80
2022/06/15 04:58:17;;;;;;;7.80;6.55;;;;;;;15.78;100.00;100368.75;6211411;23;20048;-80
2022/06/15 05:00:46;;;;;;;8.73;5.70;;;;;;;15.85;100.00;100383.19;6211490;23;20067;-80
2022/06/15 05:03:14;;;;;;;11.75;6.60;;;;;;;15.86;100.00;100370.78;6186262;23;20434;-78
2022/06/15 05:05:40;;;;;;;8.02;5.47;;;;;;;15.92;100.00;100370.16;6210673;23;20020;-80
2022/06/15 05:08:06;;;;;;;8.65;5.97;;;;;;;15.97;100.00;100381.53;6210581;23;20013;-81
2022/06/15 05:10:32;;;;;;;10.63;6.35;;;;;;;16.04;100.00;100386.03;6186740;23;20020;-81
2022/06/15 05:12:58;;;;;;;9.32;5.38;;;;;;;16.10;100.00;100384.13;6211254;23;20422;-81
2022/06/15 05:15:26;;;;;;;8.73;5.13;;;;;;;16.14;100.00;100382.75;6210576;23;20013;-80
2022/06/15 05:18:01;;;;;;;9.70;5.78;;;;;;;16.27;99.88;100390.97;6186847;23;19997;-80
2022/06/15 05:20:28;;;;;;;8.60;5.15;;;;;;;16.36;99.35;100387.41;6211642;23;20024;-81
2022/06/15 05:22:54;;;;;;;8.88;5.00;;;;;;;16.46;99.04;100398.13;6209306;23;20008;-81
2022/06/15 05:25:24;;;;;;;6.07;5.18;;;;;;;16.54;98.04;100393.00;6210789;23;20107;-80
2022/06/15 05:27:50;;;;;;;7.80;5.18;;;;;;;16.64;98.26;100395.31;6209698;23;20020;-81
2022/06/15 05:30:16;;;;;;;7.60;5.57;;;;;;;16.80;98.06;100399.81;6185059;23;20148;-80
2022/06/15 05:32:42;;;;;;;8.75;6.68;;;;;;;16.91;97.85;100394.47;6209387;23;20016;-81
2022/06/15 05:35:08;;;;;;;10.98;5.93;;;;;;;17.03;97.91;100395.50;6210084;23;20023;-81
2022/06/15 05:37:35;;;;;;;12.95;6.60;;;;;;;17.14;97.06;100384.59;6209570;23;20020;-81
2022/06/15 05:40:00;;;;;;;11.82;5.80;;;;;;;17.37;96.41;100408.31;6210264;23;20016;-81
2022/06/15 05:42:28;;;;;;;9.88;5.70;;;;;;;17.56;95.18;100402.13;6210485;23;20016;-81
2022/06/15 05:45:02;;;;;;;9.77;5.20;;;;;;;17.79;93.27;100405.47;6210970;23;20008;-81
2022/06/15 05:47:29;;;;;;;9.10;5.40;;;;;;;18.06;92.67;100396.84;6210935;23;20490;-81
2022/06/15 05:50:16;;;;;;;11.32;5.18;;;;;;;18.24;89.82;100402.28;6190456;23;20335;-81
2022/06/15 05:52:54;;;;;;;8.30;5.10;;;;;;;18.52;89.21;100406.44;6210878;23;20043;-81
2022/06/15 05:55:20;;;;;;;8.18;4.90;;;;;;;18.89;87.99;100406.03;6211101;23;20023;-81
2022/06/15 05:57:46;;;;;;;9.80;5.10;;;;;;;19.20;85.91;100403.50;6212590;23;20039;-82
2022/06/15 06:00:12;;;;;;;10.20;5.57;;;;;;;19.43;83.76;100405.44;6211278;23;20012;-82
2022/06/15 06:02:42;;;;;;;10.10;5.32;;;;;;;19.72;83.60;100400.97;6211022;23;20443;-81
2022/06/15 06:05:08;;;;;;;7.95;4.25;;;;;;;19.85;81.11;100401.41;6186340;23;20009;-82
2022/06/15 06:07:34;;;;;;;5.88;4.50;;;;;;;19.99;79.78;100400.53;6212870;23;20082;-82
2022/06/15 06:09:59;;;;;;;8.10;4.53;;;;;;;19.98;79.03;100410.25;6212084;23;20471;-81
2022/06/15 06:12:25;;;;;;;7.53;4.57;;;;;;;20.09;78.35;100418.06;6160951;23;20447;-81
2022/06/15 06:14:53;;;;;;;8.85;4.10;;;;;;;19.90;75.57;100420.38;6212764;23;20011;-82
2022/06/15 06:17:19;;;;;;;7.40;4.40;;;;;;;20.05;74.93;100415.47;6186117;23;20004;-82
2022/06/15 06:19:45;;;;;;;9.63;4.55;;;;;;;20.10;74.97;100420.38;6212524;23;20528;-81
2022/06/15 06:22:10;;;;;;;7.68;4.53;;;;;;;19.97;74.48;100414.34;6186185;23;20095;-82
2022/06/15 06:24:36;;;;;;;6.50;4.15;;;;;;;19.84;73.38;100419.56;6212489;23;20091;-82
2022/06/15 06:27:04;;;;;;;8.77;5.32;;;;;;;20.04;73.52;100413.91;6212429;23;20012;-82
2022/06/15 06:29:30;;;;;;;7.60;4.15;;;;;;;20.25;70.82;100418.28;6186215;23;20012;-81
2022/06/15 06:32:00;;;;;;;7.30;4.50;;;;;;;20.49;70.85;100426.50;6161322;23;20023;-81
2022/06/15 06:34:27;;;;;;;6.97;4.18;;;;;;;20.69;68.01;100417.22;6185779;23;20008;-81
2022/06/15 06:36:52;;;;;;;6.97;4.30;;;;;;;21.06;65.26;100422.94;6213153;23;20021;-81
2022/06/15 06:39:20;;;;;;;6.30;4.00;;;;;;;21.05;63.65;100416.53;6212204;23;20458;-81
2022/06/15 06:41:46;;;;;;;7.68;4.38;;;;;;;20.77;64.58;100429.59;6186031;23;20446;-81
2022/06/15 06:44:12;;;;;;;8.88;4.50;;;;;;;20.75;67.50;100418.03;6186782;23;20009;-81
2022/06/15 06:46:42;;;;;;;6.90;3.92;;;;;;;20.88;67.97;100412.78;6188253;23;20020;-81
2022/06/15 06:49:08;;;;;;;7.40;4.28;;;;;;;21.24;62.05;100434.66;6162535;23;20020;-81
2022/06/15 06:51:35;;;;;;;6.57;3.58;;;;;;;21.58;61.30;100415.16;6214749;23;20004;-81
2022/06/15 06:54:02;;;;;;;6.85;3.88;;;;;;;21.89;61.56;100437.66;6214069;23;20008;-82
2022/06/15 06:56:27;;;;;;;4.85;3.97;;;;;;;22.23;61.57;100441.44;6214500;23;20362;-82
2022/06/15 06:58:53;;;;;;;7.35;4.10;;;;;;;22.08;60.80;100433.13;6163071;23;20013;-82
2022/06/15 07:01:19;;;;;;;6.75;4.30;;;;;;;21.80;62.19;100430.16;6187570;23;20020;-82
2022/06/15 07:03:44;;;;;;;7.25;4.18;;;;;;;21.98;63.58;100429.00;6214038;23;20021;-82
2022/06/15 07:06:10;;;;;;;6.75;4.15;;;;;;;22.18;63.47;100420.34;6214498;23;20427;-82
2022/06/15 07:08:38;;;;;;;6.25;4.22;;;;;;;22.37;63.41;100436.84;6214335;23;20095;-82
2022/06/15 07:11:11;;;;;;;12.05;4.50;;;;;;;22.50;63.92;100429.44;6213734;23;20017;-82
2022/06/15 07:13:36;;;;;;;;;;;;;;;22.61;64.87;100437.94;6214502;23;20040;-82
2022/06/15 07:16:06;;;;;;;9.98;4.20;;;;;;;22.62;63.21;100430.22;6214182;23;19912;-82
2022/06/15 07:18:32;;;;;;;9.10;4.30;;;;;;;22.77;63.36;100433.63;6187752;23;20023;-82
2022/06/15 07:21:06;;;;;;;8.80;4.05;;;;;;;22.97;60.17;100438.28;6214660;23;20016;-82
2022/06/15 07:23:31;;;;;;;7.78;4.13;;;;;;;23.14;60.23;100431.34;6214074;23;20351;-82
2022/06/15 07:25:57;;;;;;;6.80;3.60;;;;;;;23.28;59.58;100423.88;6214482;23;20009;-82
2022/06/15 07:28:23;;;;;;;5.78;3.70;;;;;;;23.58;58.81;100421.28;6161868;23;20023;-82
2022/06/15 07:30:48;;;;;;;6.45;3.90;;;;;;;23.51;59.22;100424.66;6214366;23;20001;-82
2022/06/15 07:33:15;;;;;;;6.63;3.90;;;;;;;23.62;58.13;100424.63;6209343;23;20035;-81
2022/06/15 07:35:41;;;;;;;8.98;4.20;;;;;;;23.56;59.39;100426.69;6212252;23;20019;-81
2022/06/15 07:38:07;;;;;;;7.32;4.05;;;;;;;23.55;59.42;100419.50;6210679;23;20020;-81
2022/06/15 07:40:32;;;;;;;8.07;4.35;;;;;;;23.60;59.47;100413.81;6212430;23;20008;-81
2022/06/15 07:42:58;;;;;;;6.10;3.60;;;;;;;23.86;59.55;100429.72;6210847;23;20063;-81
2022/06/15 07:45:27;;;;;;;9.32;4.90;;;;;;;24.02;59.32;100415.47;6211234;23;20008;-81
2022/06/15 07:50:57;;;;;;;7.28;3.95;;;;;;;24.31;55.29;100416.16;6061566;23;20019;-82
2022/06/15 07:53:23;;;;;;;6.60;3.22;;;;;;;24.26;52.79;100403.56;6060730;23;20018;-82
2022/06/15 07:55:52;;;;;;;8.90;3.97;;;;;;;24.30;51.68;100414.63;6130081;23;20016;-82
2022/06/15 07:58:18;;;;;;;7.40;3.72;;;;;;;23.93;50.10;100412.97;6211505;23;20016;-82
2022/06/15 08:00:46;;;;;;;7.97;3.75;;;;;;;23.86;50.95;100413.47;6211872;23;20013;-82
2022/06/15 08:03:12;;;;;;;6.25;3.50;;;;;;;23.61;51.88;100404.06;6186596;23;20135;-82
2022/06/15 08:05:44;;;;;;;6.55;3.47;;;;;;;23.83;52.15;100411.69;6211705;23;20041;-81
2022/06/15 08:08:17;;;;;;;5.20;3.20;;;;;;;24.09;50.33;100403.63;6210411;23;20083;-81
2022/06/15 08:10:42;;;;;;;5.95;3.28;;;;;;;24.34;47.79;100410.22;6211897;23;20021;-81
2022/06/15 08:13:08;;;;;;;7.00;3.55;;;;;;;24.50;49.54;100409.38;6211226;23;20319;-81
2022/06/15 08:15:34;;;;;;;7.25;3.50;;;;;;;24.81;50.06;100401.66;6211511;23;20040;-81
2022/06/15 08:18:04;;;;;;;4.93;3.00;;;;;;;24.96;49.72;100407.75;6211408;23;20075;-81
2022/06/15 08:20:36;;;;;;;7.53;3.50;;;;;;;25.23;47.15;100414.53;6211394;23;20031;-81
2022/06/15 08:23:12;;;;;;;5.97;3.17;;;;;;;25.57;45.78;100401.53;6210089;23;20071;-82
2022/06/15 08:25:41;;;;;;;7.40;3.30;;;;;;;25.48;45.80;100410.38;6209978;23;20024;-81
2022/06/15 08:28:08;;;;;;;7.00;3.35;;;;;;;25.32;45.62;100402.81;6209965;23;20020;-81
2022/06/15 08:30:36;;;;;;;5.50;3.17;;;;;;;25.30;46.76;100397.66;6209875;23;20017;-81
2022/06/15 08:33:03;;;;;;;7.07;3.65;;;;;;;25.49;47.16;100406.25;6211138;23;20396;-81
2022/06/15 08:35:29;;;;;;;6.00;3.25;;;;;;;25.38;46.81;100417.72;6209735;23;20032;-81
2022/06/15 08:37:54;;;;;;;7.05;3.15;;;;;;;25.55;47.35;100397.72;6211983;23;20012;-81
2022/06/15 08:40:20;;;;;;;6.47;3.50;;;;;;;24.93;48.36;100386.91;6211113;23;20012;-81
2022/06/15 08:43:21;;;;;;;6.90;3.60;;;;;;;25.30;48.54;100388.38;6209923;23;20076;-81
2022/06/15 08:45:50;;;;;;;6.38;3.20;;;;;;;25.75;46.92;100392.31;6090352;23;20468;-82
2022/06/15 08:48:50;;;;;;;7.75;3.80;;;;;;;25.99;47.05;100409.34;6188259;23;20031;-82
2022/06/15 08:51:30;;;;;;;7.75;3.83;;;;;;;26.03;45.00;100405.41;6209391;23;20095;-81
2022/06/15 08:54:06;;;;;;;6.95;3.60;;;;;;;26.36;45.11;100393.63;6210364;23;20063;-82
2022/06/15 08:56:39;;;;;;;6.68;3.55;;;;;;;26.34;44.19;100408.38;6211429;23;20020;-82
2022/06/15 08:59:21;;;;;;;6.28;3.40;;;;;;;26.34;43.97;100413.31;6211546;23;20340;-82
2022/06/15 09:02:12;;;;;;;6.67;3.47;;;;;;;26.42;44.64;100402.84;6211020;23;20012;-82
2022/06/15 09:05:00;;;;;;;7.88;3.50;;;;;;;26.41;43.32;100399.22;6211117;23;20072;-82
2022/06/15 09:07:36;;;;;;;6.20;3.47;;;;;;;25.77;43.38;100403.13;6210851;23;20013;-82
2022/06/15 09:10:08;;;;;;;6.03;3.22;;;;;;;25.46;45.06;100407.31;6211835;23;20036;-81
2022/06/15 09:12:53;;;;;;;7.20;3.13;;;;;;;25.53;45.09;100381.97;6210914;23;20507;-81
2022/06/15 09:15:46;;;;;;;4.95;2.90;;;;;;;25.39;41.41;100405.06;6210690;23;20047;-81
2022/06/15 09:18:20;;;;;;;5.82;3.33;;;;;;;25.45;40.00;100386.66;6210695;23;20020;-81
2022/06/15 09:20:53;;;;;;;5.03;3.30;;;;;;;25.31;44.78;100398.44;6211262;23;20087;-81
2022/06/15 09:23:24;;;;;;;;;;;;;;;25.10;46.12;100388.81;6184567;23;20028;-81
2022/06/15 09:25:54;;;;;;;6.40;3.35;;;;;;;25.16;46.21;100395.97;6160026;23;19911;-81
2022/06/15 09:28:34;;;;;;;4.80;3.38;;;;;;;24.85;46.17;100391.59;6209467;23;20017;-80
2022/06/15 09:31:12;;;;;;;7.13;3.60;;;;;;;24.52;48.21;100392.56;6186465;23;20024;-80
2022/06/15 09:33:42;;;;;;;6.35;3.53;;;;;;;24.29;48.28;100387.56;6186397;23;20015;-80
2022/06/15 09:36:11;;;;;;;6.47;3.47;;;;;;;24.09;47.70;100389.44;6186524;23;20043;-80
2022/06/15 09:38:37;;;;;;;7.35;3.70;;;;;;;23.96;48.04;100392.06;6186321;23;20368;-80
2022/06/15 09:41:10;;;;;;;7.43;3.90;;;;;;;23.93;48.25;100398.03;6186093;23;20012;-80
2022/06/15 09:43:40;;;;;;;8.60;3.15;;;;;;;24.15;47.42;100383.75;6212780;23;20024;-80
2022/06/15 09:46:18;;;;;;;6.50;3.30;;;;;;;24.64;48.75;100387.59;6212848;23;20019;-80
2022/06/15 09:49:03;;;;;;;7.43;3.40;;;;;;;25.30;46.75;100386.31;6183778;23;20022;-80
2022/06/15 09:51:37;;;;;;;6.22;3.65;;;;;;;25.64;46.80;100392.44;6211403;23;20092;-80
2022/06/15 09:54:24;;;;;;;7.30;3.80;;;;;;;25.76;45.60;100391.00;6185123;23;20118;-80
2022/06/15 09:56:51;;;;;;;7.50;3.35;;;;;;;25.71;44.34;100388.25;6212244;23;20017;-81
2022/06/15 09:59:18;;;;;;;4.88;3.40;;;;;;;25.27;46.87;100380.94;6185392;23;20027;-80
2022/06/15 10:01:45;;;;;;;7.03;3.67;;;;;;;25.21;45.81;100377.34;6185120;23;20463;-80
2022/06/15 10:04:40;;;;;;;4.85;3.30;;;;;;;25.08;44.06;100370.25;6184631;23;20016;-80
2022/06/15 10:07:28;;;;;;;6.18;3.40;;;;;;;25.08;45.32;100380.81;6179577;23;20052;-80
2022/06/15 10:10:01;;;;;;;5.80;3.33;;;;;;;25.36;42.59;100372.03;6183537;23;20408;-83
2022/06/15 10:15:18;;;;;;;4.55;3.10;;;;;;;26.24;41.03;100369.50;6211584;23;20012;-80
2022/06/15 10:17:51;;;;;;;4.40;3.05;;;;;;;26.60;39.82;100367.94;6184744;23;20091;-80
2022/06/15 10:20:35;;;;;;;;;;;;;;;26.77;40.32;100371.28;6185662;23;20083;-81
2022/06/15 10:23:05;;;;;;;6.03;3.10;;;;;;;26.89;39.39;100361.25;6212189;23;19919;-81
2022/06/15 10:25:36;;;;;;;5.18;3.10;;;;;;;26.15;41.00;100355.63;6183972;23;20378;-81
2022/06/15 10:28:17;;;;;;;5.57;3.72;;;;;;;26.61;42.06;100352.38;6212076;23;20094;-81
2022/06/15 10:30:56;;;;;;;7.43;3.35;;;;;;;27.01;40.03;100356.19;6212347;23;20008;-81
2022/06/15 10:33:21;;;;;;;11.98;3.60;;;;;;;26.87;40.06;100348.91;6184855;23;20083;-81
2022/06/15 10:35:59;;;;;;;5.00;3.40;;;;;;;27.33;41.76;100347.56;6209555;23;20135;-81
2022/06/15 10:38:26;;;;;;;7.55;3.50;;;;;;;27.24;39.61;100348.00;6211972;23;20020;-81
2022/06/15 10:41:45;;;;;;;5.55;3.95;;;;;;;27.13;39.77;100342.50;6212552;23;20130;-81
2022/06/15 10:43:45;;;;;;;4.97;3.40;;;;;;;27.21;39.52;100337.69;6190271;23;20020;-81
2022/06/15 10:46:10;;;;;;;6.82;3.30;;;;;;;26.79;40.58;100342.28;6186161;23;20382;-81
2022/06/15 10:48:45;;;;;;;7.28;3.10;;;;;;;26.88;41.72;100354.06;6212558;23;20044;-81
2022/06/15 10:51:14;;;;;;;5.55;3.15;;;;;;;26.72;41.25;100340.84;6185547;23;20012;-81
2022/06/15 10:53:47;;;;;;;7.18;3.50;;;;;;;26.61;40.53;100323.94;6186408;23;20004;-81
2022/06/15 11:02:37;;;;;;;8.05;3.60;;;;;;;26.53;43.58;100334.41;6212313;23;20012;-81
2022/06/15 11:05:21;;;;;;;4.97;3.20;;;;;;;26.84;40.81;100330.84;6209980;23;20021;-81
2022/06/15 11:07:53;;;;;;;6.20;3.28;;;;;;;26.89;40.64;100326.38;6211576;23;20009;-82
2022/06/15 11:10:31;;;;;;;5.68;3.10;;;;;;;27.43;39.59;100328.72;6211359;23;20099;-82
2022/06/15 11:13:26;;;;;;;6.25;3.40;;;;;;;27.57;39.17;100313.19;6210173;23;20016;-82
2022/06/15 11:19:02;;;;;;;6.57;3.30;;;;;;;27.05;39.53;100316.00;6211408;23;20443;-82
2022/06/15 11:21:33;;;;;;;5.70;3.50;;;;;;;26.46;40.42;100309.44;6209804;23;20013;-81
2022/06/15 11:24:11;;;;;;;5.22;3.53;;;;;;;26.72;40.68;100312.38;6210517;23;20012;-81
2022/06/15 11:26:53;;;;;;;5.30;3.42;;;;;;;26.87;39.91;100306.22;6213210;23;20017;-81
2022/06/15 11:29:39;;;;;;;4.82;3.50;;;;;;;27.18;39.63;100313.13;6212752;23;20040;-81
2022/06/15 11:32:30;;;;;;;5.20;3.40;;;;;;;27.26;39.57;100311.19;6211644;23;20347;-81
2022/06/15 11:35:13;;;;;;;5.53;3.33;;;;;;;27.61;39.03;100304.31;6213180;23;20074;-81
2022/06/15 11:37:59;;;;;;;8.23;3.47;;;;;;;27.51;39.40;100292.59;6213134;23;20017;-81
2022/06/15 11:40:35;;;;;;;5.88;3.35;;;;;;;27.80;39.73;100302.09;6210772;23;20028;-81
2022/06/15 11:43:02;;;;;;;5.45;3.08;;;;;;;28.00;38.52;100297.75;6211610;23;20119;-81
2022/06/15 11:45:38;;;;;;;5.07;3.00;;;;;;;27.98;37.33;100303.28;6211227;23;20016;-81
2022/06/15 11:48:29;;;;;;;5.32;3.08;;;;;;;27.80;37.62;100299.25;6209824;23;20012;-81
2022/06/15 11:51:20;;;;;;;7.40;3.67;;;;;;;27.86;37.58;100301.97;6210233;23;20016;-82
2022/06/15 11:54:07;;;;;;;5.18;3.25;;;;;;;28.16;37.99;100279.53;6179276;23;20350;-81
2022/06/15 11:57:23;;;;;;;7.70;3.70;;;;;;;28.22;37.98;100300.16;6211734;23;20020;-81